METAR Data
IDs: Format: Raw Decoded Include TAF

Data at: 0913 UTC 20 Sep 2018

PARY 200906Z AUTO 22005KT 3SM -RA BR BKN008 BKN011 OVC016 07/07 A3004 RMK AO2 P0000
PARY 200856Z AUTO 21006KT 5SM -RA BR FEW006 BKN018 OVC024 07/07 A3004 RMK AO2 SLP204 P0001 60004 T00720067 56003
PARY 200842Z AUTO 21007KT 6SM -RA BR SCT003 BKN016 OVC024 07/07 A3004 RMK AO2 P0001
PARY 200824Z AUTO 21007KT 7SM -RA BKN003 OVC008 07/07 A3004 RMK AO2 P0001
PARY 200808Z AUTO 20007KT 4SM -RA BR BKN005 BKN015 OVC026 07/07 A3004 RMK AO2 CIG 003V011 P0001
PARY 200756Z AUTO 21007KT 3SM -RA BR FEW007 BKN020 OVC026 07/07 A3004 RMK AO2 SLP205 P0002 T00720067 400890056
PARY 200754Z AUTO 20006KT 2 1/2SM -RA BR FEW007 BKN020 OVC026 07/07 A3004 RMK AO2 P0002 400890056
PARY 200746Z AUTO 19008KT 3SM -RA BR BKN020 BKN026 OVC036 07/07 A3004 RMK AO2 P0002
PARY 200735Z AUTO 21007KT 190V260 2SM -RA BR FEW006 BKN020 OVC038 07/07 A3004 RMK AO2 P0002
PARY 200656Z AUTO 20004KT 3SM -RA BR FEW008 SCT018 OVC026 07/07 A3005 RMK AO2 SLP207 P0001 T00720067
PARY 200644Z AUTO 18006KT 3SM -RA BR FEW008 OVC026 07/07 A3004 RMK AO2 P0001
PARY 200632Z AUTO 19006KT 5SM -RA BR BKN029 OVC036 07/07 A3005 RMK AO2 P0001
PARY 200556Z AUTO 19006KT 10SM -RA BKN036 OVC050 07/06 A3005 RMK AO2 SLP208 P0002 60014 T00720061 10089 20072 58007
PARY 200456Z AUTO 19006KT 10SM -RA SCT034 OVC050 07/06 A3006 RMK AO2 SLP212 P0002 T00720061
PARY 200356Z AUTO 20004KT 10SM -RA SCT037 OVC060 08/07 A3007 RMK AO2 SLP214 P0002 T00780067
PARY 200313Z AUTO 20004KT 10SM -RA SCT008 BKN049 OVC060 08/07 A3007 RMK AO2 P0000
PARY 200303Z AUTO 20004KT 10SM -RA SCT008 BKN012 OVC050 08/07 A3007 RMK AO2 P0000
PARY 200256Z AUTO 19004KT 7SM -RA BKN008 BKN017 OVC050 08/07 A3007 RMK AO2 CIG 006V012 SLP216 P0005 60008 T00780072 56010
PARY 200246Z AUTO VRB03KT 8SM RA SCT008 BKN012 OVC050 08/07 A3007 RMK AO2 P0004
PARY 200236Z AUTO 20005KT 10SM -RA SCT010 BKN015 OVC050 08/07 A3007 RMK AO2 P0003
PARY 200206Z AUTO 17005KT 10SM -RA FEW008 BKN013 OVC055 08/07 A3008 RMK AO2 P0001
PARY 200156Z AUTO 17004KT 10SM -RA SCT011 BKN016 OVC055 08/07 A3008 RMK AO2 SLP218 P0003 T00830072
PARY 200056Z AUTO 20006KT 10SM -RA FEW016 BKN041 OVC055 08/07 A3009 RMK AO2 SLP222 P0000 T00830067
PARY 200047Z AUTO VRB03KT 10SM -RA FEW012 BKN041 OVC055 08/07 A3009 RMK AO2 P0000
PARY 200002Z AUTO 19003KT 10SM -RA SCT007 BKN017 OVC028 08/07 A3010 RMK AO2 P0000
PARY 192356Z AUTO 18003KT 10SM -RA BKN009 BKN018 OVC028 08/07 A3010 RMK AO2 RAB04 CIG 006V010 SLP226 P0000 60002 T00830072 10089 20061 57011
PARY 192304Z AUTO 21003KT 10SM -RA BKN009 BKN013 OVC020 09/07 A3011 RMK AO2 RAB04 CIG 008V011 P0000
PARY 192256Z AUTO 00000KT 10SM SCT011 SCT014 OVC022 08/07 A3011 RMK AO2 RAB2158E49 SLP228 P0001 T00830067
PARY 192236Z AUTO VRB06KT 10SM SCT009 OVC017 08/07 A3012 RMK AO2 RAB2158E28 P0001
PARY 192156Z AUTO 18006KT 10SM OVC015 08/06 A3013 RMK AO2 RAE39 SLP234 P0000 T00780061
PARY 192122Z AUTO 19005KT 10SM -RA BKN015 OVC034 07/06 A3013 RMK AO2 P0000
PARY 192056Z AUTO 20005KT 10SM -RA OVC034 07/06 A3014 RMK AO2 SLP237 P0000 60001 T00720061 58006
PARY 192002Z AUTO VRB05KT 10SM -RA SCT007 SCT026 OVC036 07/06 A3014 RMK AO2 P0000
PARY 191956Z AUTO 19006KT 10SM -RA BKN007 BKN026 OVC034 07/06 A3015 RMK AO2 CIG 005V015 SLP240 P0001 T00670061
PARY 191913Z AUTO 20005KT 10SM -RA BKN005 OVC033 07/06 A3015 RMK AO2 CIG 003V008 P0000
PARY 191856Z AUTO 20004KT 10SM -RA OVC007 07/06 A3015 RMK AO2 RAB22 CIG 004V009 SLP242 P0000 T00670056
PARY 191818Z AUTO VRB03KT 10SM BKN009 BKN025 OVC040 07/06 A3015 RMK AO2
PARY 191810Z AUTO 00000KT 10SM SCT009 BKN030 OVC060 06/06 A3016 RMK AO2
PARY 191756Z AUTO VRB03KT 10SM FEW025 SCT031 OVC060 07/06 A3015 RMK AO2 SLP243 T00670056 10072 20056 58004
PARY 191656Z AUTO 18004KT 10SM FEW039 BKN045 OVC065 06/05 A3016 RMK AO2 SLP246 T00610050
PARY 191604Z AUTO 24004KT 10SM FEW003 OVC043 06/05 A3017 RMK AO2
PARY 191556Z AUTO 27004KT 10SM OVC043 06/05 A3017 RMK AO2 SLP248 T00610050
PARY 191456Z AUTO 20005KT 10SM OVC055 06/04 A3017 RMK AO2 SLP247 T00560044 58005
PARY 191356Z AUTO 22004KT 10SM BKN039 BKN100 06/05 A3017 RMK AO2 SLP249 T00610050
PARY 191309Z AUTO 23004KT 4SM BR FEW001 BKN110 06/06 A3018 RMK AO2
PARY 191306Z AUTO 24003KT 1 1/4SM BR FEW001 BKN110 06/06 A3018 RMK AO2 VIS 1/2V5
PARY 191259Z AUTO 00000KT 3/4SM BR FEW001 BKN120 06/06 A3018 RMK AO2
PARY 191256Z AUTO 00000KT 1 1/2SM BR FEW001 SCT049 OVC120 06/06 A3018 RMK AO2 SLP251 T00610056
PARY 191233Z AUTO 21004KT 10SM FEW010 SCT014 OVC049 07/06 A3018 RMK AO2
PARY 191225Z AUTO 22004KT 10SM SCT008 BKN014 OVC049 07/06 A3018 RMK AO2
PARY 191156Z AUTO 22004KT 10SM BKN008 BKN035 OVC050 07/06 A3018 RMK AO2 CIG 007V011 SLP251 60017 70019 T00720061 10089 20067 58001
PARY 191145Z AUTO 24005KT 6SM BR FEW007 SCT011 OVC050 07/06 A3018 RMK AO2
PARY 191117Z AUTO 24005KT 10SM FEW004 BKN014 OVC022 07/07 A3019 RMK AO2
PARY 191056Z AUTO VRB04KT 10SM FEW004 OVC020 07/07 A3019 RMK AO2 SLP252 P0001 T00720067
PARY 191032Z AUTO 25006KT 10SM SCT002 OVC018 07/07 A3018 RMK AO2
PARY 191014Z AUTO 26007KT 3SM BR OVC002 07/07 A3018 RMK AO2
PARY 191010Z AUTO 25007KT 1 1/4SM BR OVC002 07/07 A3018 RMK AO2
PARY 191003Z AUTO 25007KT 3/4SM BR OVC002 07/07 A3018 RMK AO2
PARY 190956Z AUTO 25007KT 1 1/4SM BR OVC002 07/07 A3018 RMK AO2 VIS 1/2V3 RAE18 SLP253 P0001 T00720067
PARY 190953Z AUTO 25007KT 230V300 3/4SM BR OVC002 07/07 A3018 RMK AO2 VIS 1/2V3 RAE18 P0001
PARY 190946Z AUTO VRB06G14KT 1SM BR OVC002 07/07 A3018 RMK AO2 RAE18 P0001
PARY 190939Z AUTO 25008G14KT 2SM BR OVC002 07/07 A3018 RMK AO2 VIS 3/4V5 RAE18 P0001
PARY 190936Z AUTO 25008KT 1SM BR OVC002 07/07 A3018 RMK AO2 RAE18 P0001
PARY 190931Z AUTO 26006KT 1/2SM FG BKN002 OVC060 07/07 A3019 RMK AO2 RAE18 P0001
PARY 190923Z AUTO 25007KT 3/4SM BR BKN002 BKN048 OVC055 07/07 A3018 RMK AO2 RAE18 P0001
PARY 190919Z AUTO 25006KT 1 3/4SM BR BKN002 BKN048 OVC055 07/07 A3018 RMK AO2 VIS 1/2V5 RAE18 P0001
PARY 190856Z AUTO 27005KT 8SM RA BKN002 BKN011 OVC046 08/07 A3018 RMK AO2 SLP252 P0014 60015 T00780072 55001
PARY 190847Z AUTO 27006KT 2SM RA BR OVC002 08/08 A3018 RMK AO2 VIS 1V5 P0012
PARY 190844Z AUTO VRB04KT 1SM -RA BR OVC002 08/08 A3018 RMK AO2 P0012
PARY 190836Z AUTO 29004KT 1/2SM RA FG OVC002 08/08 A3018 RMK AO2 P0011
PARY 190821Z AUTO 27004KT 3/4SM +RA BR BKN002 OVC016 08/08 A3018 RMK AO2 P0007
PARY 190814Z AUTO 27004KT 1SM RA BR BKN002 OVC016 09/08 A3018 RMK AO2 P0003
PARY 190810Z AUTO 00000KT 2 1/2SM RA BR BKN002 OVC014 09/08 A3018 RMK AO2 VIS 1V5 P0002
PARY 190806Z AUTO 00000KT 4SM -RA BR SCT002 OVC014 09/08 A3018 RMK AO2 P0001
PARY 190756Z AUTO 00000KT 10SM -RA BKN014 OVC028 09/08 A3018 RMK AO2 RAB09 SLP251 P0000 T00890083 401060078
PARY 190656Z AUTO 00000KT 9SM BKN012 OVC017 09/08 A3018 RMK AO2 RAE47 SLP252 P0001 T00890083
PARY 190630Z AUTO 00000KT 7SM -RA FEW008 BKN015 OVC021 09/08 A3019 RMK AO2 P0001
PARY 190622Z AUTO 19003KT 7SM RA FEW008 BKN013 OVC021 09/08 A3019 RMK AO2 P0001
PARY 190556Z AUTO 18003KT 10SM -RA OVC021 09/08 A3019 RMK AO2 RAB12 SLP253 P0000 60000 T00890083 10106 20089 56002
PARY 190540Z AUTO 00000KT 5SM -RA BR BKN023 OVC040 09/09 A3019 RMK AO2 RAB12 P0000
PARY 190528Z AUTO 00000KT 3SM -RA BR FEW027 OVC040 09/09 A3019 RMK AO2 RAB12 P0000
PARY 190522Z AUTO 00000KT 1 1/4SM -RA BR FEW027 OVC038 09/09 A3019 RMK AO2 VIS 1/2V5 RAB12 P0000
PARY 190513Z AUTO 00000KT 3/4SM -RA BR SCT027 BKN036 OVC045 09/09 A3019 RMK AO2 RAB12 P0000
PARY 190510Z AUTO 00000KT 1 1/2SM BR FEW027 OVC040 09/09 A3019 RMK AO2
PARY 190456Z AUTO 09003KT 10SM OVC040 09/08 A3019 RMK AO2 SLP254 T00940083
PARY 190356Z AUTO 00000KT 10SM FEW005 SCT050 OVC095 09/09 A3019 RMK AO2 SLP253 T00940089
PARY 190344Z AUTO 00000KT 10SM FEW007 BKN050 OVC095 09/09 A3019 RMK AO2
PARY 190331Z AUTO 00000KT 10SM FEW003 BKN012 OVC055 09/09 A3019 RMK AO2
PARY 190256Z AUTO 00000KT 10SM BKN007 OVC055 10/09 A3019 RMK AO2 CIG 006V011 SLP257 60000 T01000089 58001
PARY 190247Z AUTO 00000KT 10SM SCT007 SCT012 OVC055 10/08 A3019 RMK AO2
PARY 190219Z AUTO 00000KT 10SM BKN007 BKN014 OVC043 10/09 A3019 RMK AO2
PARY 190209Z AUTO 00000KT 10SM FEW007 BKN020 OVC043 10/09 A3020 RMK AO2
PARY 190156Z AUTO 00000KT 10SM OVC043 10/09 A3020 RMK AO2 RAB31E54 SLP259 P0000 T01000089
PARY 190135Z AUTO 00000KT 10SM -RA SCT014 OVC043 10/08 A3020 RMK AO2 RAB31 P0000
PARY 190125Z AUTO 00000KT 10SM BKN014 BKN045 OVC095 10/08 A3020 RMK AO2
PARY 190056Z AUTO 29003KT 10SM FEW019 BKN033 OVC090 11/08 A3020 RMK AO2 SLP258 T01060083
PARY 190054Z AUTO 31003KT 10SM FEW019 BKN027 OVC090 11/08 A3020 RMK AO2
PARY 182356Z AUTO 00000KT 10SM SCT031 BKN060 BKN110 11/08 A3020 RMK AO2 SLP261 T01060078 10106 20083 58002
PARY 182256Z AUTO 00000KT 10SM FEW025 BKN031 BKN110 10/08 A3021 RMK AO2 SLP264 T01000083
PARY 182252Z AUTO 00000KT 10SM FEW010 BKN031 BKN110 09/08 A3021 RMK AO2
PARY 182156Z AUTO 00000KT 10SM BKN017 OVC022 09/08 A3021 RMK AO2 SLP261 T00940083
PARY 182117Z AUTO 29003KT 10SM SCT006 BKN012 OVC019 09/08 A3021 RMK AO2